Time;durP1;ratioP1;P1;durP2;ratioP2;P2;SDS_P1;SDS_P2;PMS_P1;PMS_P2;Temp;Humidity;BMP_temperature;BMP_pressure;BME280_temperature;BME280_humidity;BME280_pressure;Samples;Min_cycle;Max_cycle;Signal;HPM_P1;HPM_P2
2022/08/07 00:01:20;;;;;;;7.90;5.00;;;11.30;99.90;;;;;;5103762;28;20051;-64
2022/08/07 00:03:46;;;;;;;7.97;5.00;;;11.40;99.90;;;;;;5099663;28;20044;-64
2022/08/07 00:06:12;;;;;;;7.93;4.55;;;11.40;99.90;;;;;;5102032;28;20052;-64
2022/08/07 00:08:38;;;;;;;7.75;5.10;;;11.30;99.90;;;;;;5096726;28;20048;-64
2022/08/07 00:11:04;;;;;;;7.10;4.57;;;11.30;99.90;;;;;;5084025;28;20037;-65
2022/08/07 00:13:31;;;;;;;6.57;5.03;;;11.30;99.90;;;;;;5094988;28;20068;-64
2022/08/07 00:15:57;;;;;;;9.07;4.55;;;11.30;99.90;;;;;;5102437;28;20324;-65
2022/08/07 00:18:26;;;;;;;8.07;5.15;;;11.20;99.90;;;;;;5102208;28;20058;-64
2022/08/07 00:21:00;;;;;;;5.93;4.65;;;11.20;99.90;;;;;;5085884;28;20048;-64
2022/08/07 00:23:27;;;;;;;7.35;4.65;;;11.20;99.90;;;;;;5101532;28;20055;-65
2022/08/07 00:25:52;;;;;;;5.72;4.45;;;10.90;99.90;;;;;;5094079;28;20044;-64
2022/08/07 00:28:19;;;;;;;8.80;5.05;;;10.80;99.90;;;;;;5096952;28;20120;-64
2022/08/07 00:30:45;;;;;;;7.30;4.78;;;10.70;99.90;;;;;;5088501;28;20042;-64
2022/08/07 00:33:11;;;;;;;8.10;5.65;;;10.80;99.90;;;;;;5100426;28;20075;-64
2022/08/07 00:35:37;;;;;;;8.13;5.20;;;10.90;99.90;;;;;;5096612;28;20105;-65
2022/08/07 00:38:02;;;;;;;9.50;5.65;;;10.90;99.90;;;;;;5099608;28;20040;-65
2022/08/07 00:40:29;;;;;;;7.22;5.38;;;10.90;99.90;;;;;;5096356;28;20048;-64
2022/08/07 00:42:55;;;;;;;8.77;5.35;;;11.00;99.90;;;;;;5102555;28;20044;-64
2022/08/07 00:45:21;;;;;;;8.02;5.78;;;11.00;99.90;;;;;;5102660;28;20127;-65
2022/08/07 00:47:48;;;;;;;8.45;5.47;;;10.90;99.90;;;;;;5086972;28;20122;-65
2022/08/07 00:50:15;;;;;;;10.40;5.55;;;10.90;99.90;;;;;;5096480;28;20104;-64
2022/08/07 00:52:41;;;;;;;9.10;5.32;;;10.90;99.90;;;;;;5096662;28;20040;-64
2022/08/07 00:55:07;;;;;;;7.13;5.25;;;11.00;99.90;;;;;;5096854;28;20056;-65
2022/08/07 00:57:33;;;;;;;6.18;5.10;;;10.80;99.90;;;;;;5101163;28;20055;-64
2022/08/07 00:59:59;;;;;;;5.88;4.35;;;10.60;99.90;;;;;;5100934;28;20055;-65
2022/08/07 01:02:25;;;;;;;8.88;6.22;;;10.50;99.90;;;;;;5104179;28;20442;-64
2022/08/07 01:04:51;;;;;;;7.68;5.82;;;10.60;99.90;;;;;;5097730;28;20051;-65
2022/08/07 01:07:20;;;;;;;8.60;4.72;;;10.70;99.90;;;;;;5089098;28;20044;-64
2022/08/07 01:09:47;;;;;;;7.82;5.35;;;10.50;99.90;;;;;;5100086;28;20056;-64
2022/08/07 01:12:14;;;;;;;6.95;5.00;;;10.40;99.90;;;;;;5093642;28;20104;-64
2022/08/07 01:14:40;;;;;;;9.48;5.25;;;10.30;99.90;;;;;;5103027;28;20669;-64
2022/08/07 01:17:06;;;;;;;6.28;4.55;;;10.20;99.90;;;;;;5103510;28;20035;-64
2022/08/07 01:19:33;;;;;;;8.48;5.45;;;10.20;99.90;;;;;;5103511;28;20044;-64
2022/08/07 01:21:59;;;;;;;9.02;6.47;;;10.10;99.90;;;;;;5104143;28;20051;-64
2022/08/07 01:24:27;;;;;;;9.38;5.70;;;10.00;99.90;;;;;;5100955;28;20051;-64
2022/08/07 01:26:53;;;;;;;8.38;5.78;;;10.00;99.90;;;;;;5101439;28;20055;-64
2022/08/07 01:29:22;;;;;;;9.18;5.80;;;10.00;99.90;;;;;;5106518;28;20052;-65
2022/08/07 01:31:49;;;;;;;9.23;6.55;;;10.20;99.90;;;;;;5105375;28;20044;-64
2022/08/07 01:34:16;;;;;;;8.73;6.70;;;10.30;99.90;;;;;;5094696;28;20131;-64
2022/08/07 01:36:43;;;;;;;8.13;5.85;;;10.40;99.90;;;;;;5098700;28;20044;-64
2022/08/07 01:39:08;;;;;;;8.13;5.75;;;10.50;99.90;;;;;;5105251;28;20047;-64
2022/08/07 01:41:34;;;;;;;7.90;5.75;;;10.60;99.90;;;;;;5107108;28;20047;-64
2022/08/07 01:44:02;;;;;;;7.07;5.75;;;10.60;99.90;;;;;;5106559;28;20040;-64
2022/08/07 01:46:27;;;;;;;8.25;5.00;;;10.50;99.90;;;;;;5105369;28;20050;-65
2022/08/07 01:48:53;;;;;;;8.02;4.95;;;10.40;99.90;;;;;;5102585;28;20127;-64
2022/08/07 01:51:21;;;;;;;9.50;5.70;;;10.50;99.90;;;;;;5093638;28;20047;-64
2022/08/07 01:53:51;;;;;;;8.05;5.80;;;10.60;99.90;;;;;;5098208;28;20121;-64
2022/08/07 01:56:23;;;;;;;;;;;10.70;99.90;;;;;;5104711;28;20051;-64
2022/08/07 01:58:59;;;;;;;9.63;6.03;;;10.70;99.90;;;;;;5101655;28;19927;-64
2022/08/07 02:01:33;;;;;;;8.85;5.88;;;10.70;99.90;;;;;;5096355;28;20102;-64
2022/08/07 02:04:13;;;;;;;8.02;5.30;;;10.70;99.90;;;;;;5088787;28;20048;-64
2022/08/07 02:06:41;;;;;;;6.88;5.05;;;10.60;99.90;;;;;;5097528;28;20074;-64
2022/08/07 02:09:11;;;;;;;7.53;5.68;;;10.60;99.90;;;;;;5075878;28;20052;-64
2022/08/07 02:11:40;;;;;;;7.15;5.55;;;10.70;99.90;;;;;;5107045;28;20032;-64
2022/08/07 02:14:07;;;;;;;8.63;5.97;;;10.90;99.90;;;;;;5105089;28;20048;-64
2022/08/07 02:16:36;;;;;;;10.00;5.53;;;11.10;99.90;;;;;;5104490;28;20099;-64
2022/08/07 02:19:04;;;;;;;7.60;5.68;;;11.20;99.90;;;;;;5103120;28;20119;-64
2022/08/07 02:21:31;;;;;;;8.60;5.35;;;11.20;99.90;;;;;;5107519;28;20129;-64
2022/08/07 02:23:58;;;;;;;7.50;5.22;;;11.10;99.90;;;;;;5100710;28;20051;-64
2022/08/07 02:26:26;;;;;;;7.50;6.00;;;11.10;99.90;;;;;;5096973;28;20055;-64
2022/08/07 02:28:53;;;;;;;7.25;5.28;;;11.10;99.90;;;;;;5101309;28;20091;-65
2022/08/07 02:31:20;;;;;;;6.20;4.82;;;11.00;99.90;;;;;;5097980;28;20044;-64
2022/08/07 02:33:48;;;;;;;9.95;5.28;;;10.90;99.90;;;;;;5099773;28;20044;-64
2022/08/07 02:36:15;;;;;;;6.20;4.43;;;10.80;99.90;;;;;;5104986;28;20122;-64
2022/08/07 02:38:42;;;;;;;7.22;5.28;;;10.60;99.90;;;;;;5102892;28;20043;-64
2022/08/07 02:41:08;;;;;;;7.53;4.72;;;10.50;99.90;;;;;;5104093;28;20040;-64
2022/08/07 02:43:37;;;;;;;9.43;5.60;;;10.50;99.90;;;;;;5100174;28;20043;-64
2022/08/07 02:46:04;;;;;;;6.22;4.63;;;10.40;99.90;;;;;;5095922;28;20149;-64
2022/08/07 02:48:30;;;;;;;7.18;5.18;;;10.40;99.90;;;;;;5116098;28;20048;-64
2022/08/07 02:51:10;;;;;;;8.85;5.25;;;10.40;99.90;;;;;;5094541;28;20048;-64
2022/08/07 02:53:39;;;;;;;9.95;6.25;;;10.30;99.90;;;;;;5100363;28;20044;-64
2022/08/07 02:56:07;;;;;;;8.20;5.60;;;10.30;99.90;;;;;;5094637;28;20051;-64
2022/08/07 02:58:35;;;;;;;8.82;6.22;;;10.30;99.90;;;;;;5098144;28;20040;-64
2022/08/07 03:01:02;;;;;;;9.48;6.55;;;10.30;99.90;;;;;;5094417;28;20054;-64
2022/08/07 03:03:31;;;;;;;8.77;6.45;;;10.40;99.90;;;;;;5100447;28;20048;-64
2022/08/07 03:05:59;;;;;;;9.77;6.97;;;10.30;99.90;;;;;;5101798;28;20047;-64
2022/08/07 03:08:25;;;;;;;8.48;6.43;;;10.30;99.90;;;;;;5099405;28;20058;-64
2022/08/07 03:10:52;;;;;;;9.18;6.07;;;10.40;99.90;;;;;;5105148;28;20032;-64
2022/08/07 03:13:18;;;;;;;9.25;6.30;;;10.50;99.90;;;;;;5098884;28;20044;-64
2022/08/07 03:15:45;;;;;;;10.52;7.40;;;10.60;99.90;;;;;;5079790;28;20040;-64
2022/08/07 03:18:11;;;;;;;9.32;7.25;;;10.70;99.90;;;;;;5097511;28;20567;-64
2022/08/07 03:20:38;;;;;;;16.40;8.32;;;10.90;99.90;;;;;;5091348;28;20224;-64
2022/08/07 03:23:06;;;;;;;8.02;5.80;;;10.80;99.90;;;;;;5098013;28;20051;-64
2022/08/07 03:25:36;;;;;;;10.52;6.38;;;10.70;99.90;;;;;;5104189;28;20407;-64
2022/08/07 03:28:04;;;;;;;9.98;6.30;;;10.70;99.90;;;;;;5062562;28;1090052;-64
2022/08/07 03:30:34;;;;;;;7.95;6.28;;;10.60;99.90;;;;;;5094707;28;20075;-64
2022/08/07 03:33:01;;;;;;;9.65;7.00;;;10.60;99.90;;;;;;5091851;28;20093;-64
2022/08/07 03:35:28;;;;;;;10.00;6.18;;;10.60;99.90;;;;;;5096136;28;20059;-64
2022/08/07 03:38:01;;;;;;;9.00;6.53;;;10.50;99.90;;;;;;5098063;28;20040;-65
2022/08/07 03:40:28;;;;;;;9.48;6.57;;;10.40;99.90;;;;;;5105430;28;20177;-64
2022/08/07 03:42:55;;;;;;;8.95;6.53;;;10.20;99.90;;;;;;5099540;28;20052;-64
2022/08/07 03:45:23;;;;;;;11.00;6.63;;;10.20;99.90;;;;;;5096344;28;20096;-64
2022/08/07 03:47:50;;;;;;;10.95;6.90;;;10.20;99.90;;;;;;5103757;28;20044;-64
2022/08/07 03:50:16;;;;;;;9.55;7.03;;;10.20;99.90;;;;;;5096919;28;20055;-64
2022/08/07 03:52:44;;;;;;;8.82;6.05;;;10.20;99.90;;;;;;5095474;28;20078;-64
2022/08/07 03:55:10;;;;;;;9.13;6.32;;;10.10;99.90;;;;;;5105145;28;20530;-64
2022/08/07 03:57:36;;;;;;;10.20;7.15;;;10.10;99.90;;;;;;5101344;28;20062;-64
2022/08/07 04:00:03;;;;;;;9.23;6.90;;;10.00;99.90;;;;;;5093502;28;20052;-64
2022/08/07 04:02:30;;;;;;;11.63;7.68;;;10.00;99.90;;;;;;5105651;28;20074;-64
2022/08/07 04:04:55;;;;;;;12.48;8.68;;;10.10;99.90;;;;;;5093702;28;20037;-64
2022/08/07 04:07:22;;;;;;;12.48;8.50;;;10.10;99.90;;;;;;5100717;28;20059;-64
2022/08/07 04:09:49;;;;;;;12.65;8.38;;;10.20;99.90;;;;;;5084691;28;20074;-64
2022/08/07 04:12:15;;;;;;;11.75;7.13;;;10.30;99.90;;;;;;5100675;28;20055;-64
2022/08/07 04:14:42;;;;;;;10.95;7.90;;;10.20;99.90;;;;;;5102270;28;20560;-64
2022/08/07 04:17:08;;;;;;;9.93;7.07;;;10.10;99.90;;;;;;5100961;28;20046;-64
2022/08/07 04:19:35;;;;;;;10.75;7.68;;;10.00;99.90;;;;;;5091147;28;20046;-64
2022/08/07 04:22:02;;;;;;;9.98;7.00;;;10.00;99.90;;;;;;5101541;28;20032;-64
2022/08/07 04:24:28;;;;;;;11.82;7.97;;;10.00;99.90;;;;;;5100617;28;20164;-64
2022/08/07 04:26:56;;;;;;;11.93;7.88;;;10.00;99.90;;;;;;5090220;28;20067;-65
2022/08/07 04:29:23;;;;;;;11.95;7.93;;;9.90;99.90;;;;;;5104295;28;20048;-64
2022/08/07 04:31:49;;;;;;;13.13;7.45;;;9.80;99.90;;;;;;5100804;28;20099;-64
2022/08/07 04:34:16;;;;;;;11.20;7.07;;;9.80;99.90;;;;;;5088988;28;20044;-64
2022/08/07 04:36:42;;;;;;;10.05;6.43;;;9.90;99.90;;;;;;5103616;28;20074;-64
2022/08/07 04:39:08;;;;;;;9.27;6.78;;;9.90;99.90;;;;;;5104836;28;20059;-64
2022/08/07 04:41:34;;;;;;;9.75;6.93;;;9.90;99.90;;;;;;5100951;28;20049;-64
2022/08/07 04:44:01;;;;;;;13.10;7.38;;;10.00;99.90;;;;;;5103434;28;20097;-64
2022/08/07 04:46:43;;;;;;;8.80;6.70;;;10.10;99.90;;;;;;5100230;28;20047;-64
2022/08/07 04:49:13;;;;;;;10.10;6.68;;;10.20;99.90;;;;;;5095213;28;20052;-64
2022/08/07 04:51:51;;;;;;;;;;;10.20;99.90;;;;;;5101497;28;20047;-64
2022/08/07 04:54:41;;;;;;;11.45;6.55;;;10.20;99.90;;;;;;5103274;28;19920;-64
2022/08/07 04:57:31;;;;;;;9.50;7.00;;;10.20;99.90;;;;;;5035011;28;20052;-64
2022/08/07 05:00:04;;;;;;;10.93;7.68;;;10.40;99.90;;;;;;5098916;28;20275;-64
2022/08/07 05:03:05;;;;;;;10.15;7.25;;;10.40;99.90;;;;;;5099933;28;20127;-64
2022/08/07 05:05:42;;;;;;;10.30;7.00;;;10.50;99.90;;;;;;5093413;28;20052;-64
2022/08/07 05:08:22;;;;;;;9.75;6.40;;;10.60;99.90;;;;;;5097986;28;20048;-64
2022/08/07 05:10:52;;;;;;;10.02;6.97;;;10.60;99.90;;;;;;5099243;28;20051;-64
2022/08/07 05:13:25;;;;;;;10.93;6.70;;;10.70;99.90;;;;;;5095772;28;20051;-64
2022/08/07 05:15:52;;;;;;;9.90;6.63;;;10.80;99.90;;;;;;5100250;28;20070;-64
2022/08/07 05:18:22;;;;;;;11.30;7.20;;;10.90;99.90;;;;;;5103052;28;20081;-64
2022/08/07 05:20:53;;;;;;;11.65;7.47;;;11.00;99.90;;;;;;5097657;28;20032;-64
2022/08/07 05:23:26;;;;;;;15.27;7.28;;;11.10;99.90;;;;;;5100202;28;20131;-64
2022/08/07 05:25:53;;;;;;;9.85;7.40;;;11.20;99.90;;;;;;5094526;28;20504;-64
2022/08/07 05:28:20;;;;;;;11.73;8.63;;;11.30;99.90;;;;;;5098822;28;20059;-64
2022/08/07 05:30:46;;;;;;;12.52;8.00;;;11.40;99.90;;;;;;5092530;28;20045;-64
2022/08/07 05:33:13;;;;;;;12.90;8.15;;;11.50;99.90;;;;;;5102154;28;20059;-64
2022/08/07 05:35:40;;;;;;;12.80;8.88;;;11.60;99.90;;;;;;5090860;28;20056;-64
2022/08/07 05:38:07;;;;;;;12.05;7.90;;;11.70;99.90;;;;;;5090465;28;20039;-64
2022/08/07 05:40:37;;;;;;;13.70;8.90;;;11.80;99.90;;;;;;5095487;28;20056;-64
2022/08/07 05:43:03;;;;;;;13.65;9.63;;;11.90;99.90;;;;;;5091036;28;20078;-64
2022/08/07 05:45:30;;;;;;;13.68;8.80;;;12.00;99.90;;;;;;5090762;28;20064;-64
2022/08/07 05:47:56;;;;;;;11.82;9.18;;;12.10;99.90;;;;;;5101960;28;20081;-64
2022/08/07 05:50:23;;;;;;;13.45;9.60;;;12.20;99.90;;;;;;5101411;28;20060;-64
2022/08/07 05:52:48;;;;;;;12.63;8.88;;;12.30;99.90;;;;;;5090170;28;20039;-64
2022/08/07 05:55:14;;;;;;;13.95;9.23;;;12.40;99.90;;;;;;5100277;28;20048;-64
2022/08/07 05:57:41;;;;;;;12.95;9.23;;;12.50;99.90;;;;;;5096242;28;20059;-64
2022/08/07 06:00:08;;;;;;;15.32;9.05;;;12.60;99.90;;;;;;5093755;28;20060;-64
2022/08/07 06:02:35;;;;;;;14.05;8.80;;;12.60;99.90;;;;;;5102722;28;20093;-64
2022/08/07 06:05:12;;;;;;;12.95;9.05;;;12.80;99.90;;;;;;5094510;28;20044;-64
2022/08/07 06:07:38;;;;;;;13.05;9.40;;;12.90;99.90;;;;;;5095944;28;20047;-64
2022/08/07 06:10:05;;;;;;;13.80;9.98;;;12.90;99.90;;;;;;5098283;28;20047;-64
2022/08/07 06:12:30;;;;;;;13.98;10.18;;;13.00;99.90;;;;;;5092575;28;20037;-64
2022/08/07 06:14:57;;;;;;;19.33;11.82;;;13.10;99.90;;;;;;5088237;28;20044;-64
2022/08/07 06:17:24;;;;;;;16.42;12.48;;;13.20;99.90;;;;;;5107256;28;20048;-64
2022/08/07 06:19:50;;;;;;;17.58;13.05;;;13.30;99.90;;;;;;5103276;28;20043;-64
2022/08/07 06:22:18;;;;;;;18.05;12.70;;;13.40;99.90;;;;;;5100278;28;20105;-64
2022/08/07 06:24:45;;;;;;;17.35;11.93;;;13.50;99.90;;;;;;5099272;28;20067;-64
2022/08/07 06:27:22;;;;;;;18.85;12.30;;;13.50;99.90;;;;;;5090902;28;20057;-64
2022/08/07 06:29:48;;;;;;;15.13;11.85;;;13.70;99.90;;;;;;5098413;28;20119;-64
2022/08/07 06:32:13;;;;;;;14.13;10.25;;;13.80;99.90;;;;;;5105804;28;20047;-64
2022/08/07 06:34:39;;;;;;;16.90;12.15;;;13.80;99.90;;;;;;5093324;28;20037;-64
2022/08/07 06:37:05;;;;;;;16.98;10.82;;;13.90;99.90;;;;;;5097056;28;20447;-64
2022/08/07 06:39:33;;;;;;;20.58;12.75;;;14.00;99.90;;;;;;5098161;28;20055;-64
2022/08/07 06:42:07;;;;;;;17.65;12.13;;;14.00;99.90;;;;;;5101641;28;20036;-64
2022/08/07 06:44:35;;;;;;;14.98;11.43;;;14.10;99.90;;;;;;5103030;28;20052;-64
2022/08/07 06:47:01;;;;;;;15.27;10.40;;;14.20;99.90;;;;;;5103253;28;20044;-64
2022/08/07 06:49:27;;;;;;;17.88;12.25;;;14.30;99.90;;;;;;5104311;28;20052;-64
2022/08/07 06:51:55;;;;;;;18.98;12.35;;;14.30;99.90;;;;;;5098767;28;20051;-64
2022/08/07 06:54:25;;;;;;;17.80;12.32;;;14.40;99.90;;;;;;5100411;28;20051;-64
2022/08/07 06:56:53;;;;;;;17.55;11.38;;;14.50;99.90;;;;;;5098552;28;20104;-64
2022/08/07 06:59:25;;;;;;;18.75;11.80;;;14.60;99.90;;;;;;5089344;28;20087;-64
2022/08/07 07:01:52;;;;;;;14.15;11.13;;;14.60;99.90;;;;;;5100678;28;20040;-64
2022/08/07 07:04:19;;;;;;;14.85;10.48;;;14.70;99.90;;;;;;5093757;28;20119;-64
2022/08/07 07:06:45;;;;;;;15.40;10.45;;;14.70;99.90;;;;;;5106077;28;20100;-64
2022/08/07 07:09:18;;;;;;;14.98;11.85;;;14.80;99.90;;;;;;5105600;28;20044;-64
2022/08/07 07:11:56;;;;;;;17.05;12.40;;;14.90;99.90;;;;;;5093708;28;20043;-64
2022/08/07 07:14:26;;;;;;;17.77;12.10;;;15.00;99.90;;;;;;5103659;28;20068;-64
2022/08/07 07:16:54;;;;;;;;;;;15.00;99.90;;;;;;5105174;28;20059;-64
2022/08/07 07:19:32;;;;;;;16.85;11.55;;;15.10;99.90;;;;;;5100738;28;20013;-64
2022/08/07 07:21:59;;;;;;;13.55;8.60;;;15.20;99.90;;;;;;5104943;28;20056;-64
2022/08/07 07:24:25;;;;;;;12.90;8.00;;;15.20;99.90;;;;;;5098091;28;20072;-64
2022/08/07 07:26:55;;;;;;;13.75;9.13;;;15.30;99.90;;;;;;5097467;28;20131;-64
2022/08/07 07:29:26;;;;;;;11.70;8.13;;;15.40;99.90;;;;;;5096615;28;20044;-64
2022/08/07 07:31:55;;;;;;;9.85;6.65;;;15.40;99.90;;;;;;5097417;28;20052;-64
2022/08/07 07:34:27;;;;;;;10.07;5.68;;;15.50;99.90;;;;;;5101202;28;20488;-64
2022/08/07 07:36:53;;;;;;;10.02;6.63;;;15.50;99.90;;;;;;5096022;28;20091;-64
2022/08/07 07:39:21;;;;;;;8.20;5.30;;;15.60;99.90;;;;;;5103394;28;20040;-64
2022/08/07 07:41:49;;;;;;;7.72;4.80;;;15.70;99.90;;;;;;5095251;28;20545;-64
2022/08/07 07:44:20;;;;;;;8.52;5.82;;;15.80;99.90;;;;;;5098066;28;20051;-64
2022/08/07 07:46:48;;;;;;;6.90;4.95;;;15.80;99.90;;;;;;5102581;28;20044;-64
2022/08/07 07:49:17;;;;;;;7.30;5.63;;;15.80;99.90;;;;;;5104691;28;20059;-64
2022/08/07 07:51:45;;;;;;;8.48;5.82;;;15.90;99.90;;;;;;5098986;28;20055;-64
2022/08/07 07:54:13;;;;;;;7.30;6.18;;;16.10;99.90;;;;;;5103834;28;20090;-64
2022/08/07 07:56:41;;;;;;;6.75;5.05;;;16.20;99.90;;;;;;5100200;28;20051;-64
2022/08/07 07:59:08;;;;;;;9.15;6.72;;;16.20;99.90;;;;;;5080292;28;20548;-64
2022/08/07 08:01:38;;;;;;;5.63;3.72;;;16.30;99.90;;;;;;5096272;28;20047;-64
2022/08/07 08:04:07;;;;;;;4.85;3.22;;;16.30;99.90;;;;;;5100014;28;20050;-64
2022/08/07 08:06:33;;;;;;;6.00;4.07;;;16.40;99.90;;;;;;5101859;28;20090;-64
2022/08/07 08:09:02;;;;;;;4.63;3.10;;;16.50;99.90;;;;;;5101390;28;20511;-64
2022/08/07 08:11:29;;;;;;;4.75;2.80;;;16.60;99.90;;;;;;5098586;28;20087;-64
2022/08/07 08:13:55;;;;;;;6.80;3.28;;;16.60;99.90;;;;;;5102069;28;20044;-64
2022/08/07 08:16:29;;;;;;;5.05;3.85;;;16.60;99.90;;;;;;5103335;28;20036;-64
2022/08/07 08:18:57;;;;;;;5.20;3.50;;;16.80;99.90;;;;;;5102884;28;20439;-64
2022/08/07 08:27:04;;;;;;;5.15;3.85;;;17.10;99.90;;;;;;5101850;28;20067;-65
2022/08/07 08:29:39;;;;;;;4.65;3.42;;;17.10;99.90;;;;;;5098605;28;20641;-64
2022/08/07 08:32:08;;;;;;;8.43;4.20;;;17.10;99.90;;;;;;5101288;28;20044;-64
2022/08/07 08:34:37;;;;;;;5.47;3.90;;;17.10;99.90;;;;;;5094229;28;20052;-64
2022/08/07 08:37:05;;;;;;;7.38;4.47;;;17.10;99.90;;;;;;5094489;28;20067;-64
2022/08/07 08:39:33;;;;;;;5.35;3.35;;;17.10;99.90;;;;;;5084423;28;20100;-64
2022/08/07 08:42:08;;;;;;;3.65;3.10;;;17.20;99.90;;;;;;5102775;28;20078;-65
2022/08/07 08:44:53;;;;;;;5.20;3.60;;;17.30;99.90;;;;;;5101882;28;20036;-64
2022/08/07 08:47:50;;;;;;;5.72;3.25;;;17.40;99.90;;;;;;5090748;28;20052;-64
2022/08/07 08:50:22;;;;;;;4.35;2.95;;;17.50;99.90;;;;;;5094193;28;20048;-64
2022/08/07 08:53:03;;;;;;;3.78;2.95;;;17.50;99.90;;;;;;5098890;28;20361;-64
2022/08/07 08:55:37;;;;;;;4.95;3.25;;;17.60;99.90;;;;;;5090904;28;20047;-64
2022/08/07 08:58:30;;;;;;;4.65;3.13;;;17.60;99.90;;;;;;5098587;28;20048;-64
2022/08/07 09:01:08;;;;;;;4.95;3.72;;;17.60;99.90;;;;;;5092810;28;20040;-64
2022/08/07 09:03:41;;;;;;;6.40;4.00;;;17.60;99.90;;;;;;5103458;28;20119;-64
2022/08/07 09:06:34;;;;;;;5.75;3.83;;;17.80;99.90;;;;;;5100631;28;20412;-64
2022/08/07 09:09:23;;;;;;;7.25;4.05;;;18.00;99.90;;;;;;5098488;28;20131;-64
2022/08/07 09:11:59;;;;;;;6.60;3.22;;;18.00;99.90;;;;;;5096954;28;20040;-64
2022/08/07 09:14:34;;;;;;;5.03;4.10;;;18.00;99.90;;;;;;5102579;28;20051;-64
2022/08/07 09:17:15;;;;;;;6.97;4.18;;;18.10;99.90;;;;;;5101997;28;20044;-64
2022/08/07 09:19:47;;;;;;;6.38;3.97;;;18.10;99.90;;;;;;5093777;28;20048;-64
2022/08/07 09:22:17;;;;;;;8.75;4.43;;;18.10;99.90;;;;;;5099679;28;20063;-64
2022/08/07 09:24:57;;;;;;;7.40;3.50;;;18.10;99.90;;;;;;5100794;28;20079;-64
2022/08/07 09:27:44;;;;;;;5.53;4.20;;;18.20;99.90;;;;;;5104986;28;20112;-64
2022/08/07 09:30:12;;;;;;;5.07;3.58;;;18.30;99.90;;;;;;5092215;28;20048;-64
2022/08/07 09:33:05;;;;;;;6.97;4.25;;;18.30;99.90;;;;;;5101302;28;20040;-64
2022/08/07 09:36:16;;;;;;;5.10;3.17;;;18.40;99.90;;;;;;5090807;28;20056;-64
2022/08/07 09:39:25;;;;;;;4.97;3.67;;;18.40;99.90;;;;;;5039179;28;20058;-64
2022/08/07 09:42:05;;;;;;;7.85;3.78;;;18.40;99.90;;;;;;5034455;28;20050;-64
2022/08/07 09:44:40;;;;;;;6.68;3.53;;;18.60;99.90;;;;;;5041437;28;20042;-64
2022/08/07 09:47:25;;;;;;;5.22;3.47;;;18.80;99.90;;;;;;5041087;28;20041;-64
2022/08/07 09:50:03;;;;;;;6.10;3.63;;;19.00;99.90;;;;;;5029642;28;20075;-64
2022/08/07 09:52:36;;;;;;;5.95;3.53;;;19.20;99.90;;;;;;5047575;28;20068;-64
2022/08/07 09:55:22;;;;;;;4.63;3.25;;;19.40;99.90;;;;;;5046085;28;20085;-65
2022/08/07 09:58:12;;;;;;;6.50;3.53;;;19.40;99.90;;;;;;5048576;28;20049;-65
2022/08/07 10:00:58;;;;;;;6.15;3.40;;;19.30;99.90;;;;;;5029350;28;20374;-64
2022/08/07 10:03:30;;;;;;;6.85;3.85;;;19.30;99.90;;;;;;5045171;28;20076;-64
2022/08/07 10:06:47;;;;;;;5.20;3.80;;;19.20;99.90;;;;;;5047731;28;20521;-64
2022/08/07 10:09:49;;;;;;;5.88;3.45;;;19.10;99.90;;;;;;5027355;28;20055;-64
2022/08/07 10:12:36;;;;;;;5.30;3.30;;;19.20;99.90;;;;;;5042537;28;20052;-64
2022/08/07 10:15:34;;;;;;;4.32;2.70;;;19.30;99.90;;;;;;5058901;28;20060;-64
2022/08/07 10:18:23;;;;;;;4.40;2.90;;;19.40;99.90;;;;;;5094250;28;20497;-64
2022/08/07 10:20:54;;;;;;;5.18;3.33;;;19.50;99.90;;;;;;5096383;28;20438;-64
2022/08/07 10:23:51;;;;;;;4.03;3.13;;;19.50;99.90;;;;;;5102749;28;20104;-64
2022/08/07 10:26:39;;;;;;;4.90;3.03;;;19.60;99.90;;;;;;5105991;28;20507;-65
2022/08/07 10:29:46;;;;;;;4.85;2.75;;;19.70;99.90;;;;;;5101431;28;20052;-64
2022/08/07 10:32:44;;;;;;;4.38;2.90;;;19.70;99.90;;;;;;5094805;28;20040;-64
2022/08/07 10:35:15;;;;;;;4.55;2.60;;;19.70;99.90;;;;;;5077798;28;20052;-65
2022/08/07 10:38:01;;;;;;;3.92;2.40;;;19.60;99.90;;;;;;5097540;28;20052;-64
2022/08/07 10:41:02;;;;;;;5.35;2.45;;;19.60;99.90;;;;;;5103010;28;20055;-64
2022/08/07 10:44:14;;;;;;;6.20;2.63;;;19.80;99.90;;;;;;5027577;28;20125;-65
2022/08/07 10:47:00;;;;;;;5.32;2.85;;;19.90;99.90;;;;;;5005889;28;20100;-65
2022/08/07 10:49:36;;;;;;;4.28;2.58;;;20.00;99.90;;;;;;5044121;28;20049;-64
2022/08/07 10:52:11;;;;;;;3.65;2.47;;;20.00;99.90;;;;;;5027461;28;20095;-64
2022/08/07 10:55:01;;;;;;;6.28;2.90;;;20.00;99.90;;;;;;5022327;28;20137;-65
2022/08/07 10:57:58;;;;;;;3.35;2.42;;;20.00;99.90;;;;;;5027502;28;20053;-64
2022/08/07 11:00:32;;;;;;;4.53;3.13;;;20.00;99.90;;;;;;5043107;28;20045;-64
2022/08/07 11:03:13;;;;;;;4.05;2.72;;;20.30;99.90;;;;;;5020476;28;20064;-65
2022/08/07 11:05:54;;;;;;;3.30;2.47;;;20.30;99.90;;;;;;5017764;28;20042;-66
2022/08/07 11:08:35;;;;;;;4.00;2.60;;;20.30;99.90;;;;;;5042889;28;20041;-65
2022/08/07 11:11:18;;;;;;;2.90;2.20;;;20.40;99.90;;;;;;5044808;28;20094;-64
2022/08/07 11:14:19;;;;;;;3.25;2.10;;;20.50;99.90;;;;;;5028530;28;20076;-65
2022/08/07 11:16:52;;;;;;;4.22;2.13;;;20.60;97.80;;;;;;5043755;28;20093;-64
2022/08/07 11:19:32;;;;;;;4.03;2.42;;;20.70;98.30;;;;;;5036935;28;20056;-65
2022/08/07 11:22:30;;;;;;;3.53;1.92;;;20.70;98.50;;;;;;5101299;28;20047;-65
2022/08/07 11:24:55;;;;;;;3.20;2.15;;;20.70;98.70;;;;;;5092862;28;20070;-64
2022/08/07 11:27:41;;;;;;;4.35;2.17;;;20.70;99.40;;;;;;5104147;28;20051;-64
2022/08/07 11:30:12;;;;;;;3.92;2.17;;;20.80;99.30;;;;;;5055205;28;20056;-64
2022/08/07 11:32:57;;;;;;;4.90;2.00;;;20.80;99.00;;;;;;5103231;28;20043;-65
2022/08/07 11:35:29;;;;;;;4.15;2.40;;;20.80;99.50;;;;;;5094168;28;20059;-65
2022/08/07 11:38:07;;;;;;;3.28;1.90;;;20.80;99.70;;;;;;5103530;28;20044;-65
2022/08/07 11:40:56;;;;;;;3.83;2.35;;;20.90;99.90;;;;;;5100276;28;20098;-65
2022/08/07 11:43:25;;;;;;;2.95;2.15;;;21.00;99.90;;;;;;5105158;28;20196;-65
2022/08/07 11:45:56;;;;;;;2.88;2.22;;;21.00;99.90;;;;;;5103957;28;20040;-65
2022/08/07 11:48:31;;;;;;;4.25;2.33;;;21.00;99.80;;;;;;5101802;28;20049;-65
2022/08/07 11:51:36;;;;;;;4.28;2.08;;;21.10;99.60;;;;;;5096168;28;20040;-65
2022/08/07 11:54:18;;;;;;;3.63;2.28;;;21.20;99.10;;;;;;5102409;28;20052;-65
2022/08/07 11:57:17;;;;;;;8.25;2.38;;;21.40;98.20;;;;;;5105186;28;20078;-65
2022/08/07 12:00:05;;;;;;;3.30;2.50;;;21.40;98.90;;;;;;5103250;28;20055;-65
2022/08/07 12:02:39;;;;;;;3.42;2.22;;;21.60;98.10;;;;;;5101280;28;20113;-65
2022/08/07 12:05:27;;;;;;;4.57;2.50;;;21.60;98.20;;;;;;5093428;28;20127;-65
2022/08/07 12:08:01;;;;;;;3.15;2.35;;;21.60;97.30;;;;;;5100412;28;20048;-65
2022/08/07 12:10:36;;;;;;;2.78;2.47;;;21.50;98.80;;;;;;5100250;28;20137;-65
2022/08/07 12:13:06;;;;;;;4.07;2.22;;;21.50;98.80;;;;;;5101362;28;20043;-65
2022/08/07 12:15:42;;;;;;;3.83;2.35;;;21.60;97.90;;;;;;5105305;28;20113;-65
2022/08/07 12:18:18;;;;;;;3.95;2.17;;;21.60;98.30;;;;;;5092398;28;20052;-65
2022/08/07 12:20:59;;;;;;;5.70;2.88;;;21.60;98.20;;;;;;5099172;28;20051;-65
2022/08/07 12:23:37;;;;;;;3.53;2.13;;;21.60;97.20;;;;;;5092863;28;20051;-65
2022/08/07 12:26:23;;;;;;;2.17;1.80;;;21.70;97.20;;;;;;5100556;28;20044;-65
2022/08/07 12:29:11;;;;;;;2.92;1.80;;;21.90;97.20;;;;;;5098292;28;20069;-65
2022/08/07 12:32:14;;;;;;;3.15;2.22;;;22.00;95.80;;;;;;5091821;28;20047;-65
2022/08/07 12:34:42;;;;;;;2.25;1.70;;;22.10;96.10;;;;;;5093116;28;20044;-64
2022/08/07 12:37:10;;;;;;;3.65;1.92;;;22.10;96.30;;;;;;5104804;28;20036;-65
2022/08/07 12:39:38;;;;;;;2.42;1.77;;;22.10;96.60;;;;;;5092174;28;20040;-65
2022/08/07 12:42:07;;;;;;;2.63;1.80;;;22.30;96.00;;;;;;5097127;28;20047;-64
2022/08/07 12:44:37;;;;;;;3.72;1.92;;;22.40;95.70;;;;;;5091412;28;20290;-65
2022/08/07 12:47:21;;;;;;;;;;;22.40;95.40;;;;;;5097881;28;20078;-65
2022/08/07 12:49:59;;;;;;;3.55;1.77;;;22.40;95.80;;;;;;5101597;28;19924;-65
2022/08/07 12:52:54;;;;;;;2.17;1.60;;;22.80;94.60;;;;;;5096800;28;20126;-65
2022/08/07 12:55:21;;;;;;;2.20;1.70;;;23.00;94.10;;;;;;5097578;28;20149;-65
2022/08/07 12:57:48;;;;;;;3.03;1.73;;;23.20;94.20;;;;;;5092224;28;20044;-65
2022/08/07 13:00:14;;;;;;;3.58;2.00;;;23.50;93.20;;;;;;5096268;28;20075;-65
2022/08/07 13:03:04;;;;;;;3.40;1.80;;;23.40;93.70;;;;;;5101565;28;20044;-65
2022/08/07 13:05:48;;;;;;;3.63;2.03;;;23.60;93.00;;;;;;5099738;28;20052;-65
2022/08/07 13:08:57;;;;;;;1.92;1.70;;;23.60;93.40;;;;;;5099802;28;20058;-65
2022/08/07 13:11:30;;;;;;;3.22;2.10;;;23.50;94.30;;;;;;5101513;28;20070;-65
2022/08/07 13:14:33;;;;;;;3.92;1.80;;;23.70;93.50;;;;;;5101565;28;20040;-64
2022/08/07 13:17:11;;;;;;;6.43;1.85;;;24.00;92.20;;;;;;5090776;28;20079;-65
2022/08/07 13:19:50;;;;;;;2.83;2.00;;;24.10;92.20;;;;;;5102245;28;20055;-65
2022/08/07 13:22:46;;;;;;;3.25;1.65;;;24.20;92.40;;;;;;5101704;28;20455;-65